sensor_id;sensor_type;location;lat;lon;timestamp;P1;durP1;ratioP1;P2;durP2;ratioP2
76795;SDS011;65745;50.278;18.192;2023-03-01T00:01:24;90.40;;;46.10;;
76795;SDS011;65745;50.278;18.192;2023-03-01T00:03:59;84.90;;;47.90;;
76795;SDS011;65745;50.278;18.192;2023-03-01T00:06:31;81.00;;;43.60;;
76795;SDS011;65745;50.278;18.192;2023-03-01T00:09:04;81.90;;;43.80;;
76795;SDS011;65745;50.278;18.192;2023-03-01T00:11:37;81.40;;;44.20;;
76795;SDS011;65745;50.278;18.192;2023-03-01T00:14:09;77.80;;;43.20;;
76795;SDS011;65745;50.278;18.192;2023-03-01T00:16:42;84.10;;;47.60;;
76795;SDS011;65745;50.278;18.192;2023-03-01T00:19:17;89.30;;;47.20;;
76795;SDS011;65745;50.278;18.192;2023-03-01T00:21:51;88.50;;;47.10;;
76795;SDS011;65745;50.278;18.192;2023-03-01T00:24:24;84.60;;;46.80;;
76795;SDS011;65745;50.278;18.192;2023-03-01T00:26:57;87.00;;;44.80;;
76795;SDS011;65745;50.278;18.192;2023-03-01T00:29:29;92.70;;;44.80;;
76795;SDS011;65745;50.278;18.192;2023-03-01T00:32:02;100.90;;;49.20;;
76795;SDS011;65745;50.278;18.192;2023-03-01T00:34:35;89.60;;;45.70;;
76795;SDS011;65745;50.278;18.192;2023-03-01T00:37:08;87.90;;;46.50;;
76795;SDS011;65745;50.278;18.192;2023-03-01T00:39:41;88.20;;;44.90;;
76795;SDS011;65745;50.278;18.192;2023-03-01T00:42:14;82.40;;;44.90;;
76795;SDS011;65745;50.278;18.192;2023-03-01T00:44:47;85.20;;;43.70;;
76795;SDS011;65745;50.278;18.192;2023-03-01T00:47:19;90.20;;;45.70;;
76795;SDS011;65745;50.278;18.192;2023-03-01T00:49:52;98.60;;;52.90;;
76795;SDS011;65745;50.278;18.192;2023-03-01T00:52:24;90.20;;;47.20;;
76795;SDS011;65745;50.278;18.192;2023-03-01T00:54:57;92.10;;;47.70;;
76795;SDS011;65745;50.278;18.192;2023-03-01T00:57:30;81.60;;;45.80;;
76795;SDS011;65745;50.278;18.192;2023-03-01T01:00:03;83.90;;;44.00;;
76795;SDS011;65745;50.278;18.192;2023-03-01T01:02:38;83.00;;;44.20;;
76795;SDS011;65745;50.278;18.192;2023-03-01T01:05:11;77.30;;;38.50;;
76795;SDS011;65745;50.278;18.192;2023-03-01T01:07:50;70.80;;;37.60;;
76795;SDS011;65745;50.278;18.192;2023-03-01T01:10:22;74.00;;;37.90;;
76795;SDS011;65745;50.278;18.192;2023-03-01T01:12:54;82.70;;;42.70;;
76795;SDS011;65745;50.278;18.192;2023-03-01T01:15:27;81.20;;;40.00;;
76795;SDS011;65745;50.278;18.192;2023-03-01T01:18:00;81.00;;;40.40;;
76795;SDS011;65745;50.278;18.192;2023-03-01T01:20:32;83.30;;;40.00;;
76795;SDS011;65745;50.278;18.192;2023-03-01T01:23:06;85.50;;;44.20;;
76795;SDS011;65745;50.278;18.192;2023-03-01T01:25:39;91.10;;;45.00;;
76795;SDS011;65745;50.278;18.192;2023-03-01T01:28:11;84.90;;;41.90;;
76795;SDS011;65745;50.278;18.192;2023-03-01T01:30:44;80.90;;;40.70;;
76795;SDS011;65745;50.278;18.192;2023-03-01T01:33:16;78.50;;;40.60;;
76795;SDS011;65745;50.278;18.192;2023-03-01T01:35:49;77.10;;;40.00;;
76795;SDS011;65745;50.278;18.192;2023-03-01T01:38:22;84.60;;;45.10;;
76795;SDS011;65745;50.278;18.192;2023-03-01T01:40:55;134.80;;;67.90;;
76795;SDS011;65745;50.278;18.192;2023-03-01T01:43:28;118.30;;;59.50;;
76795;SDS011;65745;50.278;18.192;2023-03-01T01:48:38;112.50;;;57.50;;
76795;SDS011;65745;50.278;18.192;2023-03-01T01:53:46;100.10;;;50.10;;
76795;SDS011;65745;50.278;18.192;2023-03-01T01:56:21;88.90;;;45.90;;
76795;SDS011;65745;50.278;18.192;2023-03-01T01:58:56;87.90;;;50.40;;
76795;SDS011;65745;50.278;18.192;2023-03-01T02:01:29;92.50;;;51.90;;
76795;SDS011;65745;50.278;18.192;2023-03-01T02:04:02;94.80;;;48.30;;
76795;SDS011;65745;50.278;18.192;2023-03-01T02:06:36;90.50;;;50.90;;
76795;SDS011;65745;50.278;18.192;2023-03-01T02:11:43;83.40;;;42.10;;
76795;SDS011;65745;50.278;18.192;2023-03-01T02:14:17;83.10;;;40.70;;
76795;SDS011;65745;50.278;18.192;2023-03-01T02:16:49;70.70;;;34.90;;
76795;SDS011;65745;50.278;18.192;2023-03-01T02:19:26;74.10;;;38.70;;
76795;SDS011;65745;50.278;18.192;2023-03-01T02:22:11;76.70;;;40.80;;
76795;SDS011;65745;50.278;18.192;2023-03-01T02:24:51;83.50;;;43.20;;
76795;SDS011;65745;50.278;18.192;2023-03-01T02:27:38;85.80;;;44.20;;
76795;SDS011;65745;50.278;18.192;2023-03-01T02:30:17;77.60;;;43.90;;
76795;SDS011;65745;50.278;18.192;2023-03-01T02:32:51;92.30;;;43.50;;
76795;SDS011;65745;50.278;18.192;2023-03-01T02:35:32;77.80;;;40.80;;
76795;SDS011;65745;50.278;18.192;2023-03-01T02:38:07;82.10;;;42.50;;
76795;SDS011;65745;50.278;18.192;2023-03-01T02:40:40;80.50;;;42.20;;
76795;SDS011;65745;50.278;18.192;2023-03-01T02:43:13;78.30;;;48.50;;
76795;SDS011;65745;50.278;18.192;2023-03-01T02:45:49;77.00;;;41.50;;
76795;SDS011;65745;50.278;18.192;2023-03-01T02:48:22;82.40;;;44.30;;
76795;SDS011;65745;50.278;18.192;2023-03-01T02:51:01;75.40;;;44.80;;
76795;SDS011;65745;50.278;18.192;2023-03-01T02:53:41;89.20;;;47.40;;
76795;SDS011;65745;50.278;18.192;2023-03-01T02:56:21;81.90;;;42.90;;
76795;SDS011;65745;50.278;18.192;2023-03-01T02:58:53;78.90;;;44.70;;
76795;SDS011;65745;50.278;18.192;2023-03-01T03:01:30;85.20;;;44.60;;
76795;SDS011;65745;50.278;18.192;2023-03-01T03:04:09;79.20;;;43.70;;
76795;SDS011;65745;50.278;18.192;2023-03-01T03:06:48;85.70;;;45.00;;
76795;SDS011;65745;50.278;18.192;2023-03-01T03:09:21;79.90;;;42.60;;
76795;SDS011;65745;50.278;18.192;2023-03-01T03:11:53;74.40;;;40.90;;
76795;SDS011;65745;50.278;18.192;2023-03-01T03:14:26;76.20;;;41.70;;
76795;SDS011;65745;50.278;18.192;2023-03-01T03:16:58;94.70;;;45.10;;
76795;SDS011;65745;50.278;18.192;2023-03-01T03:19:35;88.40;;;45.40;;
76795;SDS011;65745;50.278;18.192;2023-03-01T03:22:08;96.20;;;46.20;;
76795;SDS011;65745;50.278;18.192;2023-03-01T03:24:40;89.60;;;45.80;;
76795;SDS011;65745;50.278;18.192;2023-03-01T03:27:12;89.20;;;48.40;;
76795;SDS011;65745;50.278;18.192;2023-03-01T03:29:44;97.10;;;47.70;;
76795;SDS011;65745;50.278;18.192;2023-03-01T03:32:16;94.30;;;47.50;;
76795;SDS011;65745;50.278;18.192;2023-03-01T03:34:48;93.00;;;45.60;;
76795;SDS011;65745;50.278;18.192;2023-03-01T03:37:20;85.30;;;48.20;;
76795;SDS011;65745;50.278;18.192;2023-03-01T03:40:11;90.00;;;49.90;;
76795;SDS011;65745;50.278;18.192;2023-03-01T03:42:44;100.60;;;49.90;;
76795;SDS011;65745;50.278;18.192;2023-03-01T03:45:17;90.00;;;49.70;;
76795;SDS011;65745;50.278;18.192;2023-03-01T03:47:49;91.20;;;47.00;;
76795;SDS011;65745;50.278;18.192;2023-03-01T03:50:22;100.60;;;48.40;;
76795;SDS011;65745;50.278;18.192;2023-03-01T03:52:54;85.90;;;44.70;;
76795;SDS011;65745;50.278;18.192;2023-03-01T03:55:26;92.40;;;50.10;;
76795;SDS011;65745;50.278;18.192;2023-03-01T03:58:00;94.90;;;44.70;;
76795;SDS011;65745;50.278;18.192;2023-03-01T04:00:37;80.70;;;46.20;;
76795;SDS011;65745;50.278;18.192;2023-03-01T04:03:11;82.40;;;45.60;;
76795;SDS011;65745;50.278;18.192;2023-03-01T04:05:45;85.40;;;43.30;;
76795;SDS011;65745;50.278;18.192;2023-03-01T04:08:22;85.00;;;44.20;;
76795;SDS011;65745;50.278;18.192;2023-03-01T04:10:58;92.90;;;46.10;;
76795;SDS011;65745;50.278;18.192;2023-03-01T04:13:53;97.40;;;46.40;;
76795;SDS011;65745;50.278;18.192;2023-03-01T04:16:27;81.90;;;40.60;;
76795;SDS011;65745;50.278;18.192;2023-03-01T04:19:00;92.40;;;45.20;;
76795;SDS011;65745;50.278;18.192;2023-03-01T04:21:35;82.60;;;39.40;;
76795;SDS011;65745;50.278;18.192;2023-03-01T04:24:08;126.50;;;57.00;;
76795;SDS011;65745;50.278;18.192;2023-03-01T04:26:40;155.40;;;67.20;;
76795;SDS011;65745;50.278;18.192;2023-03-01T04:29:12;157.20;;;67.70;;
76795;SDS011;65745;50.278;18.192;2023-03-01T04:31:45;113.70;;;54.70;;
76795;SDS011;65745;50.278;18.192;2023-03-01T04:34:18;118.10;;;53.30;;
76795;SDS011;65745;50.278;18.192;2023-03-01T04:36:53;139.50;;;60.50;;
76795;SDS011;65745;50.278;18.192;2023-03-01T04:39:25;241.20;;;87.00;;
76795;SDS011;65745;50.278;18.192;2023-03-01T04:41:57;182.30;;;70.70;;
76795;SDS011;65745;50.278;18.192;2023-03-01T04:44:30;160.10;;;66.70;;
76795;SDS011;65745;50.278;18.192;2023-03-01T04:47:02;131.80;;;56.80;;
76795;SDS011;65745;50.278;18.192;2023-03-01T04:49:34;123.20;;;56.10;;
76795;SDS011;65745;50.278;18.192;2023-03-01T04:52:07;116.50;;;52.10;;
76795;SDS011;65745;50.278;18.192;2023-03-01T04:54:40;89.00;;;42.50;;
76795;SDS011;65745;50.278;18.192;2023-03-01T04:57:12;75.20;;;38.30;;
76795;SDS011;65745;50.278;18.192;2023-03-01T04:59:44;111.60;;;48.30;;
76795;SDS011;65745;50.278;18.192;2023-03-01T05:02:16;98.30;;;48.80;;
76795;SDS011;65745;50.278;18.192;2023-03-01T05:04:48;94.00;;;46.80;;
76795;SDS011;65745;50.278;18.192;2023-03-01T05:07:21;144.10;;;62.30;;
76795;SDS011;65745;50.278;18.192;2023-03-01T05:09:53;159.90;;;69.10;;
76795;SDS011;65745;50.278;18.192;2023-03-01T05:12:25;144.60;;;64.50;;
76795;SDS011;65745;50.278;18.192;2023-03-01T05:14:58;146.60;;;62.50;;
76795;SDS011;65745;50.278;18.192;2023-03-01T05:17:36;93.90;;;46.60;;
76795;SDS011;65745;50.278;18.192;2023-03-01T05:20:09;73.90;;;42.30;;
76795;SDS011;65745;50.278;18.192;2023-03-01T05:22:43;73.20;;;40.80;;
76795;SDS011;65745;50.278;18.192;2023-03-01T05:25:15;73.80;;;38.50;;
76795;SDS011;65745;50.278;18.192;2023-03-01T05:27:48;73.70;;;37.80;;
76795;SDS011;65745;50.278;18.192;2023-03-01T05:30:21;56.30;;;33.50;;
76795;SDS011;65745;50.278;18.192;2023-03-01T05:32:53;64.00;;;34.80;;
76795;SDS011;65745;50.278;18.192;2023-03-01T05:35:25;68.40;;;37.00;;
76795;SDS011;65745;50.278;18.192;2023-03-01T05:37:58;65.70;;;36.10;;
76795;SDS011;65745;50.278;18.192;2023-03-01T05:40:32;67.10;;;35.20;;
76795;SDS011;65745;50.278;18.192;2023-03-01T05:45:38;92.00;;;39.90;;
76795;SDS011;65745;50.278;18.192;2023-03-01T05:48:12;90.30;;;41.40;;
76795;SDS011;65745;50.278;18.192;2023-03-01T05:50:45;68.70;;;36.10;;
76795;SDS011;65745;50.278;18.192;2023-03-01T05:53:17;80.40;;;38.90;;
76795;SDS011;65745;50.278;18.192;2023-03-01T05:55:51;85.00;;;42.20;;
76795;SDS011;65745;50.278;18.192;2023-03-01T05:58:23;79.20;;;42.30;;
76795;SDS011;65745;50.278;18.192;2023-03-01T06:00:56;72.40;;;36.40;;
76795;SDS011;65745;50.278;18.192;2023-03-01T06:03:28;66.30;;;35.00;;
76795;SDS011;65745;50.278;18.192;2023-03-01T06:06:01;72.30;;;36.60;;
76795;SDS011;65745;50.278;18.192;2023-03-01T06:08:33;59.00;;;35.40;;
76795;SDS011;65745;50.278;18.192;2023-03-01T06:11:06;64.90;;;37.80;;
76795;SDS011;65745;50.278;18.192;2023-03-01T06:13:38;62.60;;;35.10;;
76795;SDS011;65745;50.278;18.192;2023-03-01T06:16:11;63.70;;;34.50;;
76795;SDS011;65745;50.278;18.192;2023-03-01T06:18:44;55.80;;;32.20;;
76795;SDS011;65745;50.278;18.192;2023-03-01T06:21:16;58.70;;;32.50;;
76795;SDS011;65745;50.278;18.192;2023-03-01T06:23:48;59.80;;;32.70;;
76795;SDS011;65745;50.278;18.192;2023-03-01T06:26:21;63.90;;;34.50;;
76795;SDS011;65745;50.278;18.192;2023-03-01T06:28:53;66.90;;;36.70;;
76795;SDS011;65745;50.278;18.192;2023-03-01T06:31:25;67.30;;;36.00;;
76795;SDS011;65745;50.278;18.192;2023-03-01T06:33:57;76.80;;;39.80;;
76795;SDS011;65745;50.278;18.192;2023-03-01T06:36:30;71.00;;;39.20;;
76795;SDS011;65745;50.278;18.192;2023-03-01T06:39:02;66.80;;;37.10;;
76795;SDS011;65745;50.278;18.192;2023-03-01T06:41:35;66.20;;;34.30;;
76795;SDS011;65745;50.278;18.192;2023-03-01T06:44:07;57.50;;;28.40;;
76795;SDS011;65745;50.278;18.192;2023-03-01T06:46:39;65.80;;;36.20;;
76795;SDS011;65745;50.278;18.192;2023-03-01T06:49:12;218.80;;;70.60;;
76795;SDS011;65745;50.278;18.192;2023-03-01T06:51:45;205.30;;;68.30;;
76795;SDS011;65745;50.278;18.192;2023-03-01T06:54:17;153.50;;;60.70;;
76795;SDS011;65745;50.278;18.192;2023-03-01T06:56:51;146.50;;;57.40;;
76795;SDS011;65745;50.278;18.192;2023-03-01T06:59:23;177.80;;;62.00;;
76795;SDS011;65745;50.278;18.192;2023-03-01T07:01:56;121.20;;;51.70;;
76795;SDS011;65745;50.278;18.192;2023-03-01T07:04:29;174.00;;;62.60;;
76795;SDS011;65745;50.278;18.192;2023-03-01T07:07:02;132.20;;;53.20;;
76795;SDS011;65745;50.278;18.192;2023-03-01T07:09:35;155.60;;;60.50;;
76795;SDS011;65745;50.278;18.192;2023-03-01T07:12:07;165.50;;;65.60;;
76795;SDS011;65745;50.278;18.192;2023-03-01T07:14:40;115.00;;;57.20;;
76795;SDS011;65745;50.278;18.192;2023-03-01T07:17:14;105.70;;;55.70;;
76795;SDS011;65745;50.278;18.192;2023-03-01T07:19:56;87.70;;;47.60;;
76795;SDS011;65745;50.278;18.192;2023-03-01T07:22:28;83.80;;;46.50;;
76795;SDS011;65745;50.278;18.192;2023-03-01T07:25:01;77.60;;;44.10;;
76795;SDS011;65745;50.278;18.192;2023-03-01T07:27:33;76.30;;;42.90;;
76795;SDS011;65745;50.278;18.192;2023-03-01T07:30:06;84.80;;;46.80;;
76795;SDS011;65745;50.278;18.192;2023-03-01T07:32:41;74.00;;;39.70;;
76795;SDS011;65745;50.278;18.192;2023-03-01T07:35:16;80.30;;;39.90;;
76795;SDS011;65745;50.278;18.192;2023-03-01T07:37:49;97.60;;;44.40;;
76795;SDS011;65745;50.278;18.192;2023-03-01T07:40:21;75.50;;;40.30;;
76795;SDS011;65745;50.278;18.192;2023-03-01T07:42:56;71.40;;;38.80;;
76795;SDS011;65745;50.278;18.192;2023-03-01T07:45:30;83.70;;;44.40;;
76795;SDS011;65745;50.278;18.192;2023-03-01T07:48:03;88.00;;;45.30;;
76795;SDS011;65745;50.278;18.192;2023-03-01T07:50:41;75.30;;;43.70;;
76795;SDS011;65745;50.278;18.192;2023-03-01T07:53:28;75.70;;;43.00;;
76795;SDS011;65745;50.278;18.192;2023-03-01T07:56:05;78.20;;;42.70;;
76795;SDS011;65745;50.278;18.192;2023-03-01T08:01:13;56.50;;;35.30;;
76795;SDS011;65745;50.278;18.192;2023-03-01T08:03:48;60.30;;;33.70;;
76795;SDS011;65745;50.278;18.192;2023-03-01T08:06:22;69.70;;;38.90;;
76795;SDS011;65745;50.278;18.192;2023-03-01T08:08:55;90.00;;;46.50;;
76795;SDS011;65745;50.278;18.192;2023-03-01T08:11:28;79.90;;;43.40;;
76795;SDS011;65745;50.278;18.192;2023-03-01T08:14:01;91.60;;;44.40;;
76795;SDS011;65745;50.278;18.192;2023-03-01T08:16:34;71.40;;;40.80;;
76795;SDS011;65745;50.278;18.192;2023-03-01T08:19:09;62.30;;;39.00;;
76795;SDS011;65745;50.278;18.192;2023-03-01T08:21:42;62.20;;;38.00;;
76795;SDS011;65745;50.278;18.192;2023-03-01T08:24:15;59.20;;;37.20;;
76795;SDS011;65745;50.278;18.192;2023-03-01T08:26:47;59.80;;;36.00;;
76795;SDS011;65745;50.278;18.192;2023-03-01T08:29:20;61.90;;;41.30;;
76795;SDS011;65745;50.278;18.192;2023-03-01T08:31:53;64.30;;;38.30;;
76795;SDS011;65745;50.278;18.192;2023-03-01T08:34:26;64.60;;;39.10;;
76795;SDS011;65745;50.278;18.192;2023-03-01T08:37:00;73.30;;;43.30;;
76795;SDS011;65745;50.278;18.192;2023-03-01T08:39:36;67.50;;;38.90;;
76795;SDS011;65745;50.278;18.192;2023-03-01T08:42:08;71.80;;;40.10;;
76795;SDS011;65745;50.278;18.192;2023-03-01T08:44:41;67.40;;;37.10;;
76795;SDS011;65745;50.278;18.192;2023-03-01T08:47:16;67.80;;;39.50;;
76795;SDS011;65745;50.278;18.192;2023-03-01T08:49:50;52.80;;;36.00;;
76795;SDS011;65745;50.278;18.192;2023-03-01T08:52:23;60.50;;;35.80;;
76795;SDS011;65745;50.278;18.192;2023-03-01T08:54:59;58.40;;;35.40;;
76795;SDS011;65745;50.278;18.192;2023-03-01T08:57:31;55.40;;;33.90;;
76795;SDS011;65745;50.278;18.192;2023-03-01T09:00:05;51.20;;;32.70;;
76795;SDS011;65745;50.278;18.192;2023-03-01T09:02:43;55.90;;;37.10;;
76795;SDS011;65745;50.278;18.192;2023-03-01T09:05:38;59.40;;;35.40;;
76795;SDS011;65745;50.278;18.192;2023-03-01T09:08:11;79.60;;;42.40;;
76795;SDS011;65745;50.278;18.192;2023-03-01T09:10:44;64.90;;;38.90;;
76795;SDS011;65745;50.278;18.192;2023-03-01T09:13:17;54.60;;;33.90;;
76795;SDS011;65745;50.278;18.192;2023-03-01T09:15:56;58.40;;;35.60;;
76795;SDS011;65745;50.278;18.192;2023-03-01T09:18:29;54.60;;;36.90;;
76795;SDS011;65745;50.278;18.192;2023-03-01T09:21:06;48.80;;;32.20;;
76795;SDS011;65745;50.278;18.192;2023-03-01T09:24:11;54.90;;;33.50;;
76795;SDS011;65745;50.278;18.192;2023-03-01T09:26:46;37.80;;;24.80;;
76795;SDS011;65745;50.278;18.192;2023-03-01T09:29:20;52.50;;;32.20;;
76795;SDS011;65745;50.278;18.192;2023-03-01T09:31:53;40.40;;;25.60;;
76795;SDS011;65745;50.278;18.192;2023-03-01T09:34:26;36.30;;;26.20;;
76795;SDS011;65745;50.278;18.192;2023-03-01T09:37:00;49.00;;;32.00;;
76795;SDS011;65745;50.278;18.192;2023-03-01T09:39:33;43.30;;;28.90;;
76795;SDS011;65745;50.278;18.192;2023-03-01T09:42:10;45.90;;;29.10;;
76795;SDS011;65745;50.278;18.192;2023-03-01T09:44:47;40.00;;;26.90;;
76795;SDS011;65745;50.278;18.192;2023-03-01T09:47:22;46.20;;;30.10;;
76795;SDS011;65745;50.278;18.192;2023-03-01T09:50:00;46.20;;;29.30;;
76795;SDS011;65745;50.278;18.192;2023-03-01T09:52:38;40.40;;;28.40;;
76795;SDS011;65745;50.278;18.192;2023-03-01T09:55:14;44.10;;;30.50;;
76795;SDS011;65745;50.278;18.192;2023-03-01T09:57:57;33.10;;;24.70;;
76795;SDS011;65745;50.278;18.192;2023-03-01T10:00:39;43.30;;;27.20;;
76795;SDS011;65745;50.278;18.192;2023-03-01T10:03:16;39.50;;;25.50;;
76795;SDS011;65745;50.278;18.192;2023-03-01T10:05:58;41.00;;;29.80;;
76795;SDS011;65745;50.278;18.192;2023-03-01T10:08:38;48.00;;;33.30;;
76795;SDS011;65745;50.278;18.192;2023-03-01T10:11:22;42.00;;;28.60;;
76795;SDS011;65745;50.278;18.192;2023-03-01T10:16:59;43.70;;;28.90;;
76795;SDS011;65745;50.278;18.192;2023-03-01T10:19:38;46.00;;;30.90;;
76795;SDS011;65745;50.278;18.192;2023-03-01T10:22:15;43.30;;;29.00;;
76795;SDS011;65745;50.278;18.192;2023-03-01T10:24:50;44.90;;;30.10;;
76795;SDS011;65745;50.278;18.192;2023-03-01T10:27:25;47.80;;;29.10;;
76795;SDS011;65745;50.278;18.192;2023-03-01T10:30:12;47.40;;;30.80;;
76795;SDS011;65745;50.278;18.192;2023-03-01T10:32:52;46.70;;;32.10;;
76795;SDS011;65745;50.278;18.192;2023-03-01T10:35:28;39.40;;;26.90;;
76795;SDS011;65745;50.278;18.192;2023-03-01T10:40:36;39.10;;;25.80;;
76795;SDS011;65745;50.278;18.192;2023-03-01T10:43:22;48.40;;;30.80;;
76795;SDS011;65745;50.278;18.192;2023-03-01T10:45:59;51.90;;;32.40;;
76795;SDS011;65745;50.278;18.192;2023-03-01T10:48:32;52.20;;;32.70;;
76795;SDS011;65745;50.278;18.192;2023-03-01T10:51:12;48.40;;;32.00;;
76795;SDS011;65745;50.278;18.192;2023-03-01T10:53:50;46.00;;;29.20;;
76795;SDS011;65745;50.278;18.192;2023-03-01T10:56:23;50.00;;;31.00;;
76795;SDS011;65745;50.278;18.192;2023-03-01T10:58:59;43.60;;;28.80;;
76795;SDS011;65745;50.278;18.192;2023-03-01T11:01:33;37.60;;;27.10;;
76795;SDS011;65745;50.278;18.192;2023-03-01T11:04:12;42.40;;;30.20;;
76795;SDS011;65745;50.278;18.192;2023-03-01T11:06:46;42.00;;;31.10;;
76795;SDS011;65745;50.278;18.192;2023-03-01T11:09:32;39.10;;;26.10;;
76795;SDS011;65745;50.278;18.192;2023-03-01T11:12:12;62.70;;;45.20;;
76795;SDS011;65745;50.278;18.192;2023-03-01T11:14:50;45.20;;;28.30;;
76795;SDS011;65745;50.278;18.192;2023-03-01T11:17:29;40.70;;;28.50;;
76795;SDS011;65745;50.278;18.192;2023-03-01T11:20:23;35.40;;;24.40;;
76795;SDS011;65745;50.278;18.192;2023-03-01T11:23:02;34.80;;;23.30;;
76795;SDS011;65745;50.278;18.192;2023-03-01T11:25:41;33.10;;;22.80;;
76795;SDS011;65745;50.278;18.192;2023-03-01T11:28:19;37.00;;;24.30;;
76795;SDS011;65745;50.278;18.192;2023-03-01T11:30:57;33.00;;;23.10;;
76795;SDS011;65745;50.278;18.192;2023-03-01T11:33:39;29.50;;;23.00;;
76795;SDS011;65745;50.278;18.192;2023-03-01T11:36:19;33.00;;;23.20;;
76795;SDS011;65745;50.278;18.192;2023-03-01T11:39:03;35.00;;;23.50;;
76795;SDS011;65745;50.278;18.192;2023-03-01T11:41:50;33.80;;;22.40;;
76795;SDS011;65745;50.278;18.192;2023-03-01T11:44:47;33.30;;;23.80;;
76795;SDS011;65745;50.278;18.192;2023-03-01T11:47:27;32.10;;;22.70;;
76795;SDS011;65745;50.278;18.192;2023-03-01T11:50:21;34.80;;;22.80;;
76795;SDS011;65745;50.278;18.192;2023-03-01T11:53:06;30.70;;;21.40;;
76795;SDS011;65745;50.278;18.192;2023-03-01T11:55:55;29.50;;;22.40;;
76795;SDS011;65745;50.278;18.192;2023-03-01T11:58:45;32.70;;;22.00;;
76795;SDS011;65745;50.278;18.192;2023-03-01T12:07:22;34.10;;;20.90;;
76795;SDS011;65745;50.278;18.192;2023-03-01T12:10:26;25.90;;;19.30;;
76795;SDS011;65745;50.278;18.192;2023-03-01T12:13:23;24.30;;;18.20;;
76795;SDS011;65745;50.278;18.192;2023-03-01T12:16:21;26.10;;;17.30;;
76795;SDS011;65745;50.278;18.192;2023-03-01T12:19:15;23.10;;;16.10;;
76795;SDS011;65745;50.278;18.192;2023-03-01T12:22:09;25.60;;;18.40;;
76795;SDS011;65745;50.278;18.192;2023-03-01T12:25:10;23.30;;;16.80;;
76795;SDS011;65745;50.278;18.192;2023-03-01T12:34:06;25.80;;;18.60;;
76795;SDS011;65745;50.278;18.192;2023-03-01T12:36:58;23.20;;;17.40;;
76795;SDS011;65745;50.278;18.192;2023-03-01T12:39:50;29.70;;;18.90;;
76795;SDS011;65745;50.278;18.192;2023-03-01T12:42:35;28.80;;;19.40;;
76795;SDS011;65745;50.278;18.192;2023-03-01T12:45:44;36.10;;;23.20;;
76795;SDS011;65745;50.278;18.192;2023-03-01T12:48:41;31.50;;;20.60;;
76795;SDS011;65745;50.278;18.192;2023-03-01T12:51:24;28.40;;;19.40;;
76795;SDS011;65745;50.278;18.192;2023-03-01T12:54:01;27.80;;;19.20;;
76795;SDS011;65745;50.278;18.192;2023-03-01T12:56:43;30.00;;;20.10;;
76795;SDS011;65745;50.278;18.192;2023-03-01T12:59:26;26.60;;;19.50;;
76795;SDS011;65745;50.278;18.192;2023-03-01T13:02:13;21.80;;;18.00;;
76795;SDS011;65745;50.278;18.192;2023-03-01T13:04:57;24.90;;;18.90;;
76795;SDS011;65745;50.278;18.192;2023-03-01T13:07:38;28.30;;;19.20;;
76795;SDS011;65745;50.278;18.192;2023-03-01T13:10:21;25.70;;;19.00;;
76795;SDS011;65745;50.278;18.192;2023-03-01T13:13:10;27.50;;;20.10;;
76795;SDS011;65745;50.278;18.192;2023-03-01T13:15:52;39.30;;;25.00;;
76795;SDS011;65745;50.278;18.192;2023-03-01T13:18:33;28.30;;;20.00;;
76795;SDS011;65745;50.278;18.192;2023-03-01T13:21:06;28.90;;;20.10;;
76795;SDS011;65745;50.278;18.192;2023-03-01T13:23:39;22.60;;;17.80;;
76795;SDS011;65745;50.278;18.192;2023-03-01T13:26:18;43.60;;;28.30;;
76795;SDS011;65745;50.278;18.192;2023-03-01T13:28:52;34.20;;;26.40;;
76795;SDS011;65745;50.278;18.192;2023-03-01T13:37:33;21.70;;;19.40;;
76795;SDS011;65745;50.278;18.192;2023-03-01T13:43:30;22.80;;;20.20;;
76795;SDS011;65745;50.278;18.192;2023-03-01T13:46:09;23.30;;;20.40;;
76795;SDS011;65745;50.278;18.192;2023-03-01T13:48:49;31.00;;;27.90;;
76795;SDS011;65745;50.278;18.192;2023-03-01T13:51:25;27.80;;;25.10;;
76795;SDS011;65745;50.278;18.192;2023-03-01T13:54:00;23.80;;;21.40;;
76795;SDS011;65745;50.278;18.192;2023-03-01T13:56:36;22.30;;;19.90;;
76795;SDS011;65745;50.278;18.192;2023-03-01T13:59:17;25.80;;;23.40;;
76795;SDS011;65745;50.278;18.192;2023-03-01T14:01:53;26.00;;;23.50;;
76795;SDS011;65745;50.278;18.192;2023-03-01T14:04:29;22.10;;;20.00;;
76795;SDS011;65745;50.278;18.192;2023-03-01T14:07:12;23.60;;;21.20;;
76795;SDS011;65745;50.278;18.192;2023-03-01T14:09:51;22.50;;;20.20;;
76795;SDS011;65745;50.278;18.192;2023-03-01T14:12:34;85.30;;;59.80;;
76795;SDS011;65745;50.278;18.192;2023-03-01T14:15:22;139.90;;;90.60;;
76795;SDS011;65745;50.278;18.192;2023-03-01T14:18:24;208.50;;;126.00;;
76795;SDS011;65745;50.278;18.192;2023-03-01T14:21:00;122.50;;;81.20;;
76795;SDS011;65745;50.278;18.192;2023-03-01T14:23:37;243.40;;;144.10;;
76795;SDS011;65745;50.278;18.192;2023-03-01T14:26:12;50.50;;;37.70;;
76795;SDS011;65745;50.278;18.192;2023-03-01T14:28:51;145.40;;;86.80;;
76795;SDS011;65745;50.278;18.192;2023-03-01T14:31:36;251.50;;;145.20;;
76795;SDS011;65745;50.278;18.192;2023-03-01T14:34:22;447.30;;;310.70;;
76795;SDS011;65745;50.278;18.192;2023-03-01T14:37:11;193.30;;;123.70;;
76795;SDS011;65745;50.278;18.192;2023-03-01T14:39:50;164.70;;;106.80;;
76795;SDS011;65745;50.278;18.192;2023-03-01T14:42:24;335.70;;;240.20;;
76795;SDS011;65745;50.278;18.192;2023-03-01T14:45:00;151.30;;;107.70;;
76795;SDS011;65745;50.278;18.192;2023-03-01T14:47:35;122.00;;;89.50;;
76795;SDS011;65745;50.278;18.192;2023-03-01T14:50:16;232.10;;;166.50;;
76795;SDS011;65745;50.278;18.192;2023-03-01T14:52:55;169.20;;;124.70;;
76795;SDS011;65745;50.278;18.192;2023-03-01T14:55:32;158.40;;;117.40;;
76795;SDS011;65745;50.278;18.192;2023-03-01T14:58:09;168.40;;;131.30;;
76795;SDS011;65745;50.278;18.192;2023-03-01T15:00:46;76.00;;;66.30;;
76795;SDS011;65745;50.278;18.192;2023-03-01T15:03:25;48.90;;;43.90;;
76795;SDS011;65745;50.278;18.192;2023-03-01T15:06:01;43.30;;;38.90;;
76795;SDS011;65745;50.278;18.192;2023-03-01T15:08:35;43.10;;;37.40;;
76795;SDS011;65745;50.278;18.192;2023-03-01T15:11:19;37.10;;;33.10;;
76795;SDS011;65745;50.278;18.192;2023-03-01T15:13:54;35.10;;;31.50;;
76795;SDS011;65745;50.278;18.192;2023-03-01T15:16:28;39.30;;;35.70;;
76795;SDS011;65745;50.278;18.192;2023-03-01T15:19:03;40.70;;;37.10;;
76795;SDS011;65745;50.278;18.192;2023-03-01T15:21:37;38.20;;;34.80;;
76795;SDS011;65745;50.278;18.192;2023-03-01T15:24:17;27.70;;;25.00;;
76795;SDS011;65745;50.278;18.192;2023-03-01T15:26:54;25.30;;;22.80;;
76795;SDS011;65745;50.278;18.192;2023-03-01T15:29:31;27.30;;;24.70;;
76795;SDS011;65745;50.278;18.192;2023-03-01T15:32:24;28.30;;;25.60;;
76795;SDS011;65745;50.278;18.192;2023-03-01T15:35:09;24.40;;;22.00;;
76795;SDS011;65745;50.278;18.192;2023-03-01T15:40:58;149.60;;;85.40;;
76795;SDS011;65745;50.278;18.192;2023-03-01T15:43:45;399.80;;;175.30;;